Terminal Aerodrome Forecast
Issued by NWS

Home | Current Version | Previous Version | Text Only | Print | Product List | Glossary On
Versions: 1 2 3 4 5 6 7 8 9 10 11 12 13 14 15 16 17 18
000
FTAK31 PANC 140537
TAFAVD
TAF
PAVD 140537Z 1406/1506 VRB03KT 4SM BR SCT001 OVC030
      TEMPO 1406/1409 1/4SM FG BKN001
     FM140900 VRB03KT 4SM -RASN BR SCT008 OVC025
     FM150000 VRB03KT 2SM -RA BR SCT004 OVC015
      AMD LTD TO CLD VIS AND WIND=

USA.gov is the U.S. government's official web portal to all federal, state and local government web resources and services.